createdAt,value
2019-02-17T00:02:29.228Z,16.17
2019-02-17T00:05:00.785Z,15.78
2019-02-17T00:07:33.841Z,17.07
2019-02-17T00:10:05.857Z,16.93
2019-02-17T00:12:37.500Z,14.80
2019-02-17T00:15:09.234Z,16.93
2019-02-17T00:17:41.036Z,16.93
2019-02-17T00:20:12.526Z,15.63
2019-02-17T00:22:44.099Z,16.12
2019-02-17T00:25:15.586Z,15.95
2019-02-17T00:27:47.049Z,15.40
2019-02-17T00:30:18.706Z,16.07
2019-02-17T00:32:50.396Z,16.50
2019-02-17T00:35:21.891Z,16.12
2019-02-17T00:37:53.567Z,16.15
2019-02-17T00:40:25.114Z,17.73
2019-02-17T00:42:56.569Z,16.27
2019-02-17T00:45:28.035Z,16.97
2019-02-17T00:47:59.769Z,16.65
2019-02-17T00:50:31.352Z,17.10
2019-02-17T00:53:03.086Z,16.50
2019-02-17T00:55:34.750Z,16.93
2019-02-17T00:58:06.431Z,16.37
2019-02-17T01:00:37.648Z,17.60
2019-02-17T01:03:09.460Z,16.40
2019-02-17T01:05:40.810Z,17.40
2019-02-17T01:08:12.311Z,17.55
2019-02-17T01:10:44.006Z,17.35
2019-02-17T01:13:15.567Z,16.95
2019-02-17T01:15:47.370Z,18.48
2019-02-17T01:18:19.906Z,16.32
2019-02-17T01:20:51.953Z,17.10
2019-02-17T01:23:23.565Z,17.92
2019-02-17T01:25:55.082Z,17.52
2019-02-17T01:28:26.591Z,16.75
2019-02-17T01:30:58.370Z,16.80
2019-02-17T01:33:29.711Z,17.20
2019-02-17T01:36:01.313Z,17.77
2019-02-17T01:38:33.003Z,16.17
2019-02-17T01:41:04.502Z,16.32
2019-02-17T01:43:35.991Z,17.17
2019-02-17T01:46:07.321Z,17.48
2019-02-17T01:48:38.963Z,16.48
2019-02-17T01:51:10.856Z,17.65
2019-02-17T01:53:42.092Z,17.67
2019-02-17T01:56:13.628Z,17.87
2019-02-17T01:58:45.110Z,17.67
2019-02-17T02:01:17.250Z,18.27
2019-02-17T02:03:48.730Z,18.20
2019-02-17T02:06:20.319Z,18.25
2019-02-17T02:08:52.046Z,19.02
2019-02-17T02:11:23.737Z,18.17
2019-02-17T02:13:55.303Z,17.85
2019-02-17T02:16:26.770Z,18.42
2019-02-17T02:18:58.357Z,18.73
2019-02-17T02:21:29.845Z,18.35
2019-02-17T02:24:01.373Z,18.73
2019-02-17T02:26:32.632Z,19.35
2019-02-17T02:29:04.055Z,18.67
2019-02-17T02:31:35.862Z,19.00
2019-02-17T02:34:07.415Z,20.52
2019-02-17T02:36:39.060Z,17.70
2019-02-17T02:39:10.615Z,19.73
2019-02-17T02:41:42.074Z,19.95
2019-02-17T02:44:13.349Z,20.50
2019-02-17T02:46:44.725Z,19.35
2019-02-17T02:49:16.073Z,20.12
2019-02-17T02:51:47.332Z,20.85
2019-02-17T02:54:18.884Z,21.52
2019-02-17T02:56:50.180Z,21.40
2019-02-17T02:59:21.435Z,21.73
2019-02-17T03:01:52.757Z,22.17
2019-02-17T03:04:23.993Z,21.27
2019-02-17T03:07:00.691Z,21.48
2019-02-17T03:09:32.126Z,21.73
2019-02-17T03:12:03.952Z,21.75
2019-02-17T03:14:35.554Z,22.05
2019-02-17T03:17:07.125Z,22.20
2019-02-17T03:19:38.386Z,21.55
2019-02-17T03:22:10.804Z,21.73
2019-02-17T03:24:42.247Z,22.22
2019-02-17T03:27:13.852Z,22.93
2019-02-17T03:29:45.482Z,22.45
2019-02-17T03:32:17.947Z,22.15
2019-02-17T03:34:49.666Z,24.35
2019-02-17T03:37:21.667Z,23.00
2019-02-17T03:39:53.344Z,23.30
2019-02-17T03:42:25.039Z,22.05
2019-02-17T03:44:56.731Z,21.25
2019-02-17T03:47:28.127Z,21.33
2019-02-17T03:49:59.765Z,22.80
2019-02-17T03:52:31.423Z,22.60
2019-02-17T03:55:03.062Z,23.35
2019-02-17T03:57:34.687Z,22.02
2019-02-17T04:00:16.428Z,23.95
2019-02-17T04:02:39.798Z,23.57
2019-02-17T04:05:11.432Z,23.40
2019-02-17T04:07:43.029Z,24.85
2019-02-17T04:10:15.543Z,23.92
2019-02-17T04:12:47.222Z,25.20
2019-02-17T04:15:18.883Z,23.20
2019-02-17T04:17:50.553Z,22.98
2019-02-17T04:20:22.018Z,22.55
2019-02-17T04:22:53.546Z,22.90
2019-02-17T04:25:25.079Z,24.43
2019-02-17T04:27:56.687Z,23.42
2019-02-17T04:30:29.730Z,25.05
2019-02-17T04:33:01.530Z,25.32
2019-02-17T04:35:33.053Z,26.10
2019-02-17T04:38:04.648Z,26.23
2019-02-17T04:40:36.058Z,26.35
2019-02-17T04:43:07.685Z,26.40
2019-02-17T04:45:39.340Z,27.82
2019-02-17T04:48:11.256Z,27.40
2019-02-17T04:50:42.905Z,27.98
2019-02-17T04:53:14.406Z,28.25
2019-02-17T04:55:45.887Z,27.02
2019-02-17T04:58:17.850Z,29.18
2019-02-17T05:00:50.165Z,31.00
2019-02-17T05:03:21.740Z,33.90
2019-02-17T05:05:53.340Z,33.55
2019-02-17T05:08:24.884Z,34.13
2019-02-17T05:10:56.239Z,32.70
2019-02-17T05:13:27.802Z,33.53
2019-02-17T05:15:59.524Z,31.55
2019-02-17T05:18:30.997Z,32.58
2019-02-17T05:21:02.425Z,33.88
2019-02-17T05:23:33.706Z,31.65
2019-02-17T05:26:05.114Z,32.20
2019-02-17T05:28:36.783Z,33.38
2019-02-17T05:31:08.031Z,31.50
2019-02-17T05:33:39.543Z,32.03
2019-02-17T05:36:11.034Z,33.28
2019-02-17T05:38:42.389Z,30.65
2019-02-17T05:41:13.917Z,32.13
2019-02-17T05:43:45.722Z,29.40
2019-02-17T05:46:17.172Z,30.50
2019-02-17T05:48:50.266Z,28.55
2019-02-17T05:51:21.894Z,26.65
2019-02-17T05:53:53.244Z,28.80
2019-02-17T05:56:24.546Z,27.82
2019-02-17T05:58:55.981Z,28.45
2019-02-17T06:01:27.342Z,29.40
2019-02-17T06:03:58.723Z,31.33
2019-02-17T06:06:30.361Z,30.25
2019-02-17T06:09:01.983Z,30.75
2019-02-17T06:11:35.212Z,35.08
2019-02-17T06:14:06.803Z,31.30
2019-02-17T06:16:38.062Z,29.55
2019-02-17T06:19:09.507Z,29.50
2019-02-17T06:21:41.052Z,28.90
2019-02-17T06:24:12.607Z,28.20
2019-02-17T06:26:44.274Z,29.18
2019-02-17T06:29:16.226Z,28.90
2019-02-17T06:31:47.755Z,30.57
2019-02-17T06:34:19.441Z,29.35
2019-02-17T06:36:50.810Z,33.60
2019-02-17T06:39:23.117Z,37.48
2019-02-17T06:41:54.387Z,40.20
2019-02-17T06:44:25.776Z,41.45
2019-02-17T06:47:00.579Z,41.90
2019-02-17T06:49:32.332Z,49.03
2019-02-17T06:52:03.852Z,49.23
2019-02-17T06:54:35.481Z,49.65
2019-02-17T06:57:25.796Z,48.35
2019-02-17T07:00:31.038Z,43.63
2019-02-17T07:03:02.582Z,42.65
2019-02-17T07:05:46.569Z,36.80
2019-02-17T07:08:18.092Z,37.33
2019-02-17T07:10:49.563Z,36.77
2019-02-17T07:13:20.875Z,38.02
2019-02-17T07:15:52.605Z,39.00
2019-02-17T07:18:24.094Z,42.27
2019-02-17T07:20:55.517Z,39.33
2019-02-17T07:23:27.128Z,39.23
2019-02-17T07:25:58.769Z,40.48
2019-02-17T07:28:30.203Z,36.40
2019-02-17T07:31:01.751Z,39.50
2019-02-17T07:33:33.341Z,40.73
2019-02-17T07:36:05.072Z,40.23
2019-02-17T07:38:36.447Z,36.10
2019-02-17T07:41:08.028Z,36.90
2019-02-17T07:43:39.239Z,36.13
2019-02-17T07:46:10.730Z,37.80
2019-02-17T07:48:42.318Z,38.28
2019-02-17T07:51:13.904Z,36.40
2019-02-17T07:53:45.454Z,35.75
2019-02-17T07:56:17.095Z,35.23
2019-02-17T07:58:48.487Z,32.48
2019-02-17T08:01:19.982Z,31.05
2019-02-17T08:03:51.563Z,32.67
2019-02-17T08:06:23.145Z,31.70
2019-02-17T08:08:54.578Z,30.37
2019-02-17T08:11:26.162Z,32.23
2019-02-17T08:13:57.503Z,30.17
2019-02-17T08:16:28.795Z,27.82
2019-02-17T08:19:00.307Z,31.17
2019-02-17T08:21:31.512Z,28.98
2019-02-17T08:24:02.775Z,29.65
2019-02-17T08:26:34.159Z,27.95
2019-02-17T08:29:05.932Z,27.07
2019-02-17T08:31:37.168Z,28.47
2019-02-17T08:34:08.468Z,29.63
2019-02-17T08:36:39.795Z,25.88
2019-02-17T08:39:11.021Z,25.27
2019-02-17T08:41:42.241Z,25.25
2019-02-17T08:44:13.676Z,24.25
2019-02-17T08:46:45.222Z,23.77
2019-02-17T08:49:16.568Z,24.50
2019-02-17T08:51:48.005Z,24.57
2019-02-17T08:54:19.197Z,23.55
2019-02-17T08:56:50.797Z,23.30
2019-02-17T08:59:22.083Z,22.75
2019-02-17T09:01:53.300Z,23.67
2019-02-17T09:04:24.558Z,23.98
2019-02-17T09:06:56.159Z,23.30
2019-02-17T09:09:28.186Z,22.87
2019-02-17T09:11:59.521Z,24.32
2019-02-17T09:14:31.123Z,24.12
2019-02-17T09:17:02.631Z,23.52
2019-02-17T09:19:34.024Z,23.80
2019-02-17T09:22:05.578Z,23.77
2019-02-17T09:24:37.227Z,24.67
2019-02-17T09:27:08.614Z,25.00
2019-02-17T09:29:40.008Z,25.37
2019-02-17T09:32:16.247Z,25.48
2019-02-17T09:34:44.276Z,23.93
2019-02-17T09:37:15.922Z,22.37
2019-02-17T09:39:47.264Z,22.85
2019-02-17T09:42:18.645Z,21.60
2019-02-17T09:44:49.857Z,23.98
2019-02-17T09:47:21.273Z,23.40
2019-02-17T09:49:52.792Z,24.23
2019-02-17T09:52:24.043Z,22.20
2019-02-17T09:54:55.097Z,22.03
2019-02-17T09:57:26.568Z,22.75
2019-02-17T09:59:57.526Z,22.30
2019-02-17T10:02:28.745Z,21.70
2019-02-17T10:04:59.797Z,20.87
2019-02-17T10:07:30.799Z,23.57
2019-02-17T10:10:01.750Z,21.60
2019-02-17T10:12:32.754Z,20.33
2019-02-17T10:15:03.806Z,20.80
2019-02-17T10:17:34.950Z,24.97
2019-02-17T10:20:06.702Z,25.43
2019-02-17T10:22:37.883Z,22.00
2019-02-17T10:25:09.498Z,22.80
2019-02-17T10:27:40.906Z,22.00
2019-02-17T10:30:14.080Z,20.77
2019-02-17T10:32:45.440Z,20.17
2019-02-17T10:35:17.762Z,21.37
2019-02-17T10:37:50.255Z,20.03
2019-02-17T10:40:21.486Z,18.90
2019-02-17T10:42:52.672Z,19.10
2019-02-17T10:45:24.071Z,18.03
2019-02-17T10:47:55.100Z,19.90
2019-02-17T10:50:26.475Z,19.13
2019-02-17T10:52:58.016Z,26.57
2019-02-17T10:55:29.380Z,21.03
2019-02-17T10:58:00.814Z,20.83
2019-02-17T11:00:31.858Z,17.70
2019-02-17T11:03:08.695Z,39.03
2019-02-17T11:05:39.883Z,17.97
2019-02-17T11:08:10.955Z,16.67
2019-02-17T11:10:42.161Z,34.70
2019-02-17T11:13:13.626Z,19.47
2019-02-17T11:15:44.902Z,14.97
2019-02-17T11:18:16.134Z,16.13
2019-02-17T11:20:47.356Z,18.77
2019-02-17T11:23:18.408Z,17.20
2019-02-17T11:25:49.940Z,18.33
2019-02-17T11:28:21.229Z,14.43
2019-02-17T11:30:52.280Z,14.33
2019-02-17T11:33:23.591Z,14.43
2019-02-17T11:35:55.091Z,14.87
2019-02-17T11:38:26.197Z,14.00
2019-02-17T11:40:57.682Z,14.73
2019-02-17T11:43:28.671Z,14.17
2019-02-17T11:45:59.994Z,16.70
2019-02-17T11:48:31.108Z,14.43
2019-02-17T11:51:02.338Z,13.73
2019-02-17T11:53:33.765Z,13.83
2019-02-17T11:56:05.105Z,12.57
2019-02-17T11:58:36.245Z,12.77
2019-02-17T12:01:07.598Z,12.53
2019-02-17T12:03:39.301Z,12.90
2019-02-17T12:06:10.917Z,13.07
2019-02-17T12:08:48.764Z,12.93
2019-02-17T12:11:20.331Z,11.83
2019-02-17T12:13:51.521Z,11.60
2019-02-17T12:16:23.029Z,14.00
2019-02-17T12:18:54.464Z,12.13
2019-02-17T12:21:47.554Z,12.20
2019-02-17T12:24:21.972Z,11.80
2019-02-17T12:27:03.946Z,11.57
2019-02-17T12:29:38.514Z,12.53
2019-02-17T12:32:10.094Z,12.83
2019-02-17T12:34:41.132Z,9.03
2019-02-17T12:37:12.464Z,10.90
2019-02-17T12:39:43.701Z,12.60
2019-02-17T12:42:14.979Z,10.07
2019-02-17T12:44:46.235Z,8.80
2019-02-17T12:47:17.605Z,8.60
2019-02-17T12:49:48.865Z,9.50
2019-02-17T12:52:20.206Z,9.43
2019-02-17T12:54:51.426Z,7.80
2019-02-17T12:57:22.495Z,6.93
2019-02-17T12:59:53.427Z,8.17
2019-02-17T13:02:24.492Z,9.27
2019-02-17T13:04:55.599Z,9.87
2019-02-17T13:07:26.744Z,10.00
2019-02-17T13:09:58.030Z,7.87
2019-02-17T13:12:29.312Z,8.47
2019-02-17T13:15:00.611Z,9.50
2019-02-17T13:17:32.155Z,7.73
2019-02-17T13:20:03.086Z,7.80
2019-02-17T13:22:34.387Z,7.60
2019-02-17T13:25:05.952Z,6.70
2019-02-17T13:27:37.150Z,7.17
2019-02-17T13:30:14.406Z,7.73
2019-02-17T13:32:45.675Z,9.73
2019-02-17T13:35:17.028Z,8.03
2019-02-17T13:37:48.174Z,15.00
2019-02-17T13:40:19.546Z,7.70
2019-02-17T13:42:50.789Z,8.10
2019-02-17T13:45:21.951Z,8.57
2019-02-17T13:47:53.291Z,8.27
2019-02-17T13:50:24.499Z,8.90
2019-02-17T13:52:55.852Z,9.40
2019-02-17T13:55:27.183Z,9.63
2019-02-17T13:57:58.618Z,9.00
2019-02-17T14:00:30.603Z,8.60
2019-02-17T14:03:04.424Z,8.87
2019-02-17T14:05:35.513Z,22.77
2019-02-17T14:08:07.015Z,9.00
2019-02-17T14:10:38.476Z,9.67
2019-02-17T14:13:09.713Z,8.83
2019-02-17T14:15:40.979Z,8.80
2019-02-17T14:18:11.954Z,8.20
2019-02-17T14:20:43.367Z,12.77
2019-02-17T14:23:14.517Z,8.30
2019-02-17T14:25:45.624Z,7.80
2019-02-17T14:28:16.571Z,8.37
2019-02-17T14:30:47.617Z,8.63
2019-02-17T14:33:18.683Z,8.00
2019-02-17T14:35:49.978Z,16.03
2019-02-17T14:38:21.353Z,8.37
2019-02-17T14:40:52.587Z,8.80
2019-02-17T14:43:24.145Z,8.07
2019-02-17T14:45:55.509Z,22.53
2019-02-17T14:48:26.966Z,8.30
2019-02-17T14:50:58.096Z,8.67
2019-02-17T14:53:29.435Z,8.73
2019-02-17T14:56:00.755Z,8.23
2019-02-17T14:58:32.034Z,8.13
2019-02-17T15:01:03.177Z,9.03
2019-02-17T15:03:35.329Z,9.20
2019-02-17T15:06:06.902Z,10.23
2019-02-17T15:08:38.007Z,10.90
2019-02-17T15:11:09.582Z,11.47
2019-02-17T15:13:40.867Z,11.50
2019-02-17T15:16:11.976Z,11.90
2019-02-17T15:18:43.023Z,13.23
2019-02-17T15:21:14.064Z,15.83
2019-02-17T15:23:45.053Z,11.77
2019-02-17T15:26:16.143Z,13.60
2019-02-17T15:28:50.908Z,11.43
2019-02-17T15:31:20.237Z,16.10
2019-02-17T15:33:51.522Z,11.33
2019-02-17T15:36:22.802Z,14.37
2019-02-17T15:38:54.010Z,11.13
2019-02-17T15:41:25.387Z,11.57
2019-02-17T15:43:56.542Z,11.27
2019-02-17T15:46:27.623Z,13.93
2019-02-17T15:48:58.928Z,10.33
2019-02-17T15:51:30.022Z,11.47
2019-02-17T15:54:01.271Z,11.60
2019-02-17T15:56:32.546Z,11.30
2019-02-17T15:59:03.525Z,10.63
2019-02-17T16:01:34.609Z,10.93
2019-02-17T16:04:05.922Z,10.70
2019-02-17T16:06:36.988Z,11.80
2019-02-17T16:09:09.191Z,10.83
2019-02-17T16:11:40.681Z,10.97
2019-02-17T16:14:11.754Z,11.50
2019-02-17T16:16:43.064Z,14.47
2019-02-17T16:19:14.123Z,11.13
2019-02-17T16:21:45.113Z,13.80
2019-02-17T16:24:16.126Z,15.03
2019-02-17T16:26:47.109Z,12.33
2019-02-17T16:29:18.151Z,13.80
2019-02-17T16:31:49.106Z,14.30
2019-02-17T16:34:20.423Z,22.07
2019-02-17T16:36:51.447Z,16.67
2019-02-17T16:39:22.985Z,15.90
2019-02-17T16:41:53.899Z,15.53
2019-02-17T16:44:25.593Z,15.40
2019-02-17T16:46:57.140Z,15.50
2019-02-17T16:49:28.192Z,15.83
2019-02-17T16:51:59.814Z,15.65
2019-02-17T16:54:31.116Z,15.13
2019-02-17T16:57:02.458Z,16.75
2019-02-17T16:59:33.989Z,16.30
2019-02-17T17:02:05.656Z,18.77
2019-02-17T17:04:37.189Z,20.15
2019-02-17T17:07:08.674Z,18.20
2019-02-17T17:09:39.906Z,23.95
2019-02-17T17:12:11.549Z,18.25
2019-02-17T17:14:43.036Z,19.60
2019-02-17T17:17:14.565Z,20.80
2019-02-17T17:19:46.119Z,24.85
2019-02-17T17:22:17.759Z,23.40
2019-02-17T17:24:49.544Z,21.48
2019-02-17T17:27:20.977Z,22.35
2019-02-17T17:29:52.574Z,19.60
2019-02-17T17:32:24.160Z,19.25
2019-02-17T17:34:58.985Z,19.30
2019-02-17T17:37:28.402Z,18.57
2019-02-17T17:40:00.717Z,18.48
2019-02-17T17:42:32.073Z,19.67
2019-02-17T17:45:03.384Z,20.77
2019-02-17T17:47:35.342Z,21.77
2019-02-17T17:50:07.718Z,20.08
2019-02-17T17:52:39.273Z,19.73
2019-02-17T17:55:10.942Z,21.77
2019-02-17T17:57:42.555Z,19.57
2019-02-17T18:00:16.800Z,18.75
2019-02-17T18:02:48.434Z,18.48
2019-02-17T18:05:20.169Z,17.98
2019-02-17T18:07:51.575Z,18.37
2019-02-17T18:10:22.808Z,18.00
2019-02-17T18:12:54.510Z,19.73
2019-02-17T18:15:26.083Z,17.07
2019-02-17T18:17:57.850Z,17.20
2019-02-17T18:20:29.592Z,17.48
2019-02-17T18:23:01.202Z,16.20
2019-02-17T18:25:32.754Z,16.93
2019-02-17T18:28:04.432Z,16.80
2019-02-17T18:30:35.746Z,15.78
2019-02-17T18:33:07.445Z,16.57
2019-02-17T18:35:39.161Z,16.87
2019-02-17T18:38:10.889Z,17.10
2019-02-17T18:40:45.072Z,17.02
2019-02-17T18:43:15.525Z,16.40
2019-02-17T18:45:47.171Z,16.27
2019-02-17T18:48:18.426Z,16.55
2019-02-17T18:50:58.728Z,16.82
2019-02-17T18:53:22.825Z,18.50
2019-02-17T18:55:54.295Z,19.52
2019-02-17T18:58:26.614Z,18.42
2019-02-17T19:00:57.873Z,18.37
2019-02-17T19:03:29.689Z,18.77
2019-02-17T19:06:01.451Z,19.92
2019-02-17T19:08:32.990Z,18.02
2019-02-17T19:11:04.756Z,17.95
2019-02-17T19:13:36.365Z,17.32
2019-02-17T19:16:07.832Z,16.75
2019-02-17T19:18:40.126Z,19.05
2019-02-17T19:21:11.629Z,18.85
2019-02-17T19:23:43.012Z,19.35
2019-02-17T19:26:14.800Z,19.35
2019-02-17T19:28:46.462Z,18.62
2019-02-17T19:31:18.254Z,18.17
2019-02-17T19:33:49.999Z,17.17
2019-02-17T19:36:21.556Z,20.25
2019-02-17T19:38:53.225Z,19.25
2019-02-17T19:41:24.810Z,19.95
2019-02-17T19:43:56.182Z,18.20
2019-02-17T19:46:27.801Z,19.15
2019-02-17T19:48:59.204Z,19.60
2019-02-17T19:51:30.451Z,20.08
2019-02-17T19:54:02.229Z,20.55
2019-02-17T19:56:33.460Z,21.30
2019-02-17T19:59:04.778Z,21.20
2019-02-17T20:01:36.279Z,27.62
2019-02-17T20:04:17.191Z,20.43
2019-02-17T20:06:49.058Z,18.20
2019-02-17T20:09:20.566Z,18.23
2019-02-17T20:11:52.413Z,18.27
2019-02-17T20:14:23.806Z,16.52
2019-02-17T20:16:55.216Z,17.48
2019-02-17T20:19:26.880Z,16.67
2019-02-17T20:21:58.225Z,17.82
2019-02-17T20:24:29.447Z,17.32
2019-02-17T20:27:00.693Z,16.90
2019-02-17T20:29:32.114Z,16.95
2019-02-17T20:32:03.650Z,15.53
2019-02-17T20:34:35.017Z,15.93
2019-02-17T20:37:06.448Z,16.07
2019-02-17T20:39:38.034Z,15.30
2019-02-17T20:42:09.334Z,15.35
2019-02-17T20:44:40.808Z,14.40
2019-02-17T20:47:12.395Z,14.35
2019-02-17T20:49:43.883Z,17.10
2019-02-17T20:52:15.372Z,24.57
2019-02-17T20:54:46.808Z,20.23
2019-02-17T20:57:19.127Z,15.05
2019-02-17T20:59:50.318Z,17.00
2019-02-17T21:02:21.783Z,17.42
2019-02-17T21:04:53.271Z,16.55
2019-02-17T21:07:24.698Z,15.75
2019-02-17T21:09:56.155Z,14.63
2019-02-17T21:12:27.642Z,15.00
2019-02-17T21:14:59.157Z,14.43
2019-02-17T21:17:30.628Z,14.13
2019-02-17T21:20:02.453Z,13.88
2019-02-17T21:22:34.123Z,14.07
2019-02-17T21:25:06.304Z,13.90
2019-02-17T21:27:37.836Z,15.08
2019-02-17T21:30:09.405Z,14.58
2019-02-17T21:32:41.035Z,14.98
2019-02-17T21:35:13.366Z,14.40
2019-02-17T21:37:44.986Z,15.53
2019-02-17T21:40:16.670Z,14.30
2019-02-17T21:42:48.441Z,20.48
2019-02-17T21:45:19.990Z,13.93
2019-02-17T21:47:51.358Z,14.47
2019-02-17T21:50:22.735Z,14.98
2019-02-17T21:52:54.198Z,15.40
2019-02-17T21:55:25.420Z,15.40
2019-02-17T21:57:56.871Z,15.20
2019-02-17T22:00:28.414Z,18.55
2019-02-17T22:02:59.842Z,20.72
2019-02-17T22:05:31.261Z,20.68
2019-02-17T22:08:02.683Z,17.10
2019-02-17T22:10:34.218Z,15.00
2019-02-17T22:13:05.827Z,14.90
2019-02-17T22:15:37.332Z,16.25
2019-02-17T22:18:08.864Z,19.75
2019-02-17T22:20:40.529Z,21.17
2019-02-17T22:23:12.147Z,16.95
2019-02-17T22:25:43.748Z,16.45
2019-02-17T22:28:15.099Z,15.95
2019-02-17T22:30:46.557Z,17.45
2019-02-17T22:33:18.140Z,17.15
2019-02-17T22:35:49.618Z,19.15
2019-02-17T22:38:21.166Z,16.42
2019-02-17T22:40:52.710Z,17.98
2019-02-17T22:43:24.300Z,17.30
2019-02-17T22:45:55.669Z,17.42
2019-02-17T22:48:27.253Z,17.32
2019-02-17T22:50:58.877Z,18.32
2019-02-17T22:53:30.124Z,16.45
2019-02-17T22:56:01.772Z,19.95
2019-02-17T22:58:33.126Z,18.60
2019-02-17T23:01:07.817Z,22.07
2019-02-17T23:03:40.714Z,23.55
2019-02-17T23:06:12.161Z,21.93
2019-02-17T23:08:43.657Z,26.17
2019-02-17T23:11:14.984Z,25.50
2019-02-17T23:13:46.540Z,23.07
2019-02-17T23:16:18.111Z,25.48
2019-02-17T23:18:49.840Z,24.60
2019-02-17T23:21:21.232Z,24.05
2019-02-17T23:23:52.775Z,24.80
2019-02-17T23:26:24.410Z,23.38
2019-02-17T23:28:55.856Z,25.60
2019-02-17T23:31:27.081Z,26.10
2019-02-17T23:33:58.572Z,24.95
2019-02-17T23:36:30.079Z,23.85
2019-02-17T23:39:01.839Z,24.52
2019-02-17T23:41:34.794Z,24.45
2019-02-17T23:44:06.237Z,22.90
2019-02-17T23:46:37.773Z,21.05
2019-02-17T23:49:09.437Z,20.88
2019-02-17T23:51:40.962Z,20.48
2019-02-17T23:54:12.293Z,22.00
2019-02-17T23:56:43.873Z,19.70
2019-02-17T23:59:16.370Z,21.23
